Piper — WDE6779 — position and weather

sailwx.info

Track history (hours):
 
Tides and Currents Weather Stations Pressure Air Temp Water Temp Dewpoint Dewpoint Depression Visibility Wind Speed Wind Dir Waves Ship Positions

Piper

Owner: ADS MARINE, LLC, MORGAN CITY, LA. More information available from US FCC via Universal Licensing System and Coast Guard Vessel Documentation Center.

Last reported at 2018-Feb-20 09:15 UTC. Time now 2018-Feb-22 06:58 UTC.
Position N 29°38' W 092°16'.

Length 40 m; draft 3 m.

Type: Cargo ship. MMSI: 367384720.

Date/timePositionNaut miles runAvg speedWind from/ knotsBaromVisibWave heightAir tempDewpointWater temp
2018-Feb-20 09:15N 29°38' W 092°16'2 6.6
2018-Feb-20 09:00N 29°39' W 092°16'3 6.9
2018-Feb-20 08:30N 29°42' W 092°15'3 6.5
2018-Feb-20 07:58N 29°45' W 092°12'2 4.4
2018-Feb-20 07:26N 29°47' W 092°10'0 0.0
2018-Feb-20 07:00N 29°47' W 092°10'0 0.0
2018-Feb-20 06:30N 29°47' W 092°10'0 0.0
2018-Feb-20 06:00N 29°47' W 092°10'0 0.0
2018-Feb-20 05:30N 29°47' W 092°10'0 0.0
2018-Feb-20 04:59N 29°47' W 092°10'0 0.0
2018-Feb-20 04:30N 29°47' W 092°10'0 0.0
2018-Feb-20 04:00N 29°47' W 092°10'0 0.0
2018-Feb-20 03:29N 29°47' W 092°10'0 0.0
2018-Feb-20 03:00N 29°47' W 092°10'0 0.0
2018-Feb-20 02:30N 29°47' W 092°10'0 0.0
2018-Feb-20 02:00N 29°47' W 092°10'0 0.0
2018-Feb-20 01:30N 29°47' W 092°10'0 0.0
2018-Feb-20 01:00N 29°47' W 092°10'0 0.0
2018-Feb-20 00:30N 29°47' W 092°10'0 0.0
2018-Feb-20 00:00N 29°47' W 092°10'0 0.0
2018-Feb-19 23:29N 29°47' W 092°10'0 0.0
2018-Feb-19 23:00N 29°47' W 092°10'0 0.0
2018-Feb-19 22:30N 29°47' W 092°10'0 0.0
2018-Feb-19 22:00N 29°47' W 092°10'0 0.0
2018-Feb-19 21:29N 29°47' W 092°10'0 0.0
2018-Feb-19 21:00N 29°47' W 092°10'1 1.9
2018-Feb-19 20:30N 29°47' W 092°11'0 0.0
2018-Feb-19 20:00N 29°47' W 092°11'0 0.0
2018-Feb-19 19:30N 29°47' W 092°11'0 0.0
2018-Feb-19 19:00N 29°47' W 092°11'0 0.3
2018-Feb-19 18:30N 29°47' W 092°11'0 0.0
2018-Feb-19 18:00N 29°47' W 092°11'0 0.0
2018-Feb-19 17:30N 29°47' W 092°11'0 0.0
2018-Feb-19 17:00N 29°47' W 092°11'2 4.4
2018-Feb-19 16:30N 29°45' W 092°13'4 7.1
2018-Feb-19 16:00N 29°42' W 092°15'4 6.7
2018-Feb-19 15:24N 29°38' W 092°16'  
2018-Feb-14 04:15N 29°47' W 092°10'0 0.0
2018-Feb-12 22:25N 29°47' W 092°10'0 0.0
2018-Feb-12 22:00N 29°47' W 092°10'0 0.0
2018-Feb-12 21:30N 29°47' W 092°10'0 0.0
2018-Feb-12 21:00N 29°47' W 092°10'0 0.0
2018-Feb-12 20:30N 29°47' W 092°10'0 0.0
2018-Feb-12 20:00N 29°47' W 092°10'0 0.0
2018-Feb-12 19:30N 29°47' W 092°10'0 0.0
2018-Feb-12 19:00N 29°47' W 092°10'0 0.0
2018-Feb-12 18:30N 29°47' W 092°10'1 1.6
2018-Feb-12 18:00N 29°47' W 092°11'0 0.0
2018-Feb-12 17:30N 29°47' W 092°11'2 3.4
2018-Feb-12 17:00N 29°45' W 092°12'4 7.9
2018-Feb-12 16:30N 29°42' W 092°15'4 7.7
2018-Feb-12 15:59N 29°38' W 092°16'  
Track history (hours):
 
Tides and Currents Weather Stations Pressure Air Temp Water Temp Dewpoint Dewpoint Depression Visibility Wind Speed Wind Dir Waves Ship Positions

Piper

Owner: ADS MARINE, LLC, MORGAN CITY, LA. More information available from US FCC via Universal Licensing System and Coast Guard Vessel Documentation Center.

Last reported at 2018-Feb-20 09:15 UTC. Time now 2018-Feb-22 06:58 UTC.
Position N 29°38' W 092°16'.

Length 40 m; draft 3 m.

Type: Cargo ship. MMSI: 367384720.

Date/timePositionNaut miles runAvg speedWind from/ knotsBaromVisibWave heightAir tempDewpointWater temp
2018-Feb-20 09:15N 29°38' W 092°16'2 6.6
2018-Feb-20 09:00N 29°39' W 092°16'3 6.9
2018-Feb-20 08:30N 29°42' W 092°15'3 6.5
2018-Feb-20 07:58N 29°45' W 092°12'2 4.4
2018-Feb-20 07:26N 29°47' W 092°10'0 0.0
2018-Feb-20 07:00N 29°47' W 092°10'0 0.0
2018-Feb-20 06:30N 29°47' W 092°10'0 0.0
2018-Feb-20 06:00N 29°47' W 092°10'0 0.0
2018-Feb-20 05:30N 29°47' W 092°10'0 0.0
2018-Feb-20 04:59N 29°47' W 092°10'0 0.0
2018-Feb-20 04:30N 29°47' W 092°10'0 0.0
2018-Feb-20 04:00N 29°47' W 092°10'0 0.0
2018-Feb-20 03:29N 29°47' W 092°10'0 0.0
2018-Feb-20 03:00N 29°47' W 092°10'0 0.0
2018-Feb-20 02:30N 29°47' W 092°10'0 0.0
2018-Feb-20 02:00N 29°47' W 092°10'0 0.0
2018-Feb-20 01:30N 29°47' W 092°10'0 0.0
2018-Feb-20 01:00N 29°47' W 092°10'0 0.0
2018-Feb-20 00:30N 29°47' W 092°10'0 0.0
2018-Feb-20 00:00N 29°47' W 092°10'0 0.0
2018-Feb-19 23:29N 29°47' W 092°10'0 0.0
2018-Feb-19 23:00N 29°47' W 092°10'0 0.0
2018-Feb-19 22:30N 29°47' W 092°10'0 0.0
2018-Feb-19 22:00N 29°47' W 092°10'0 0.0
2018-Feb-19 21:29N 29°47' W 092°10'0 0.0
2018-Feb-19 21:00N 29°47' W 092°10'1 1.9
2018-Feb-19 20:30N 29°47' W 092°11'0 0.0
2018-Feb-19 20:00N 29°47' W 092°11'0 0.0
2018-Feb-19 19:30N 29°47' W 092°11'0 0.0
2018-Feb-19 19:00N 29°47' W 092°11'0 0.3
2018-Feb-19 18:30N 29°47' W 092°11'0 0.0
2018-Feb-19 18:00N 29°47' W 092°11'0 0.0
2018-Feb-19 17:30N 29°47' W 092°11'0 0.0
2018-Feb-19 17:00N 29°47' W 092°11'2 4.4
2018-Feb-19 16:30N 29°45' W 092°13'4 7.1
2018-Feb-19 16:00N 29°42' W 092°15'4 6.7
2018-Feb-19 15:24N 29°38' W 092°16'  
2018-Feb-14 04:15N 29°47' W 092°10'0 0.0
2018-Feb-12 22:25N 29°47' W 092°10'0 0.0
2018-Feb-12 22:00N 29°47' W 092°10'0 0.0
2018-Feb-12 21:30N 29°47' W 092°10'0 0.0
2018-Feb-12 21:00N 29°47' W 092°10'0 0.0
2018-Feb-12 20:30N 29°47' W 092°10'0 0.0
2018-Feb-12 20:00N 29°47' W 092°10'0 0.0
2018-Feb-12 19:30N 29°47' W 092°10'0 0.0
2018-Feb-12 19:00N 29°47' W 092°10'0 0.0
2018-Feb-12 18:30N 29°47' W 092°10'1 1.6
2018-Feb-12 18:00N 29°47' W 092°11'0 0.0
2018-Feb-12 17:30N 29°47' W 092°11'2 3.4
2018-Feb-12 17:00N 29°45' W 092°12'4 7.9
2018-Feb-12 16:30N 29°42' W 092°15'4 7.7
2018-Feb-12 15:59N 29°38' W 092°16'  

Dump ship's entire track history